Pagrindinis puslapis
METAR-TAF:

METAR-TAF

Oro uostai :

Chugiak, Aliaska, Jungtinės Amerikos Valstijos

platuma: 61-25N, ilguma: 149-31W, Aukštis: 29 m

Dabartinis oras

Ataskaita buvo paskelbta 19 minutes, ne 20:56 UTC
Vėjas 3 kt iš Pietryčių
Temperatūra 9°C
Drėgmė 66%
Slėgis 997 hPa
Matomumas: 16.1 km
Apsiniaukę ne aukštis 3500 ft

METAR: PABV 212056Z AUTO 14003KT 10SM OVC035 09/03 A2943 RMK AO2 SLP970 60000 T00940033 53021

Laikas: 13:15 (21:15 UTC)


TAF: trūkstamas

Orai ataskaitas ir orų prognozės (METAR, TAF).

turimą stotys yra geltonos ir raudonos taškus žemėlapyje.

Perkelti pele per norėdami pamatyti stoties vardą.

Tada spustelėkite, norėdami matyti oro stebėjimo ir prognozės.

Norėdami pakeisti žemėlapį: spustelėkite ant žalios mygtukų su juodo kryžiaus žemyn,; žalią mygtuką su brūkšneliu, jei norite nutolinti; arba žalių rodyklių gretimoms žemėlapius.


METAR-TAF: